Time;durP1;ratioP1;P1;durP2;ratioP2;P2;SDS_P1;SDS_P2;PMS_P1;PMS_P2;Temp;Humidity;BMP_temperature;BMP_pressure;BME280_temperature;BME280_humidity;BME280_pressure;Samples;Min_cycle;Max_cycle;Signal;HPM_P1;HPM_P2
2021/12/31 00:02:00;;;;;;;;;14.50;13.25;;;;;15.07;70.04;101760.63;5009824;28;45881;-61
2021/12/31 00:04:25;;;;;;;;;14.00;11.50;;;;;14.97;70.15;101739.44;5020873;28;45375;-62
2021/12/31 00:06:50;;;;;;;;;13.75;12.00;;;;;15.04;70.24;101750.00;5027916;28;45659;-62
2021/12/31 00:09:15;;;;;;;;;14.00;12.00;;;;;15.03;70.12;101756.28;5025085;28;45994;-62
2021/12/31 00:11:41;;;;;;;;;14.75;12.75;;;;;15.01;70.34;101762.59;5018928;28;45246;-62
2021/12/31 00:14:07;;;;;;;;;12.50;12.00;;;;;15.00;70.21;101755.47;5021172;28;45265;-62
2021/12/31 00:16:32;;;;;;;;;9.00;7.50;;;;;14.97;69.93;101752.03;5020434;28;45671;-62
2021/12/31 00:18:57;;;;;;;;;13.00;12.50;;;;;14.97;70.15;101755.56;5021561;28;45259;-61
2021/12/31 00:21:23;;;;;;;;;13.50;12.50;;;;;14.93;70.10;101745.84;5020317;28;45290;-62
2021/12/31 00:23:48;;;;;;;;;13.50;13.50;;;;;14.92;70.26;101735.16;5022697;28;45803;-61
2021/12/31 00:26:13;;;;;;;;;16.75;14.00;;;;;14.92;70.04;101737.84;5021636;28;45218;-61
2021/12/31 00:28:39;;;;;;;;;12.00;11.50;;;;;14.92;69.83;101738.72;5021489;28;46187;-62
2021/12/31 00:31:04;;;;;;;;;12.00;11.75;;;;;14.90;70.03;101729.84;5021013;28;45569;-62
2021/12/31 00:33:29;;;;;;;;;11.25;10.75;;;;;14.91;70.00;101728.03;5021632;28;45336;-61
2021/12/31 00:35:55;;;;;;;;;11.00;10.00;;;;;14.89;70.02;101725.38;5021583;28;45342;-62
2021/12/31 00:38:20;;;;;;;;;10.33;10.00;;;;;14.85;69.66;101725.53;5023784;28;45265;-62
2021/12/31 00:40:46;;;;;;;;;13.00;12.00;;;;;14.89;69.80;101730.75;5026219;28;45657;-62
2021/12/31 00:43:11;;;;;;;;;10.75;10.75;;;;;14.86;70.03;101721.94;5021462;28;45380;-62
2021/12/31 00:45:40;;;;;;;;;9.50;9.00;;;;;14.87;70.00;101724.56;5021354;28;45341;-62
2021/12/31 00:48:11;;;;;;;;;9.75;7.00;;;;;14.88;69.89;101730.81;5021088;28;45373;-62
2021/12/31 00:50:38;;;;;;;;;9.00;9.00;;;;;14.87;69.55;101731.72;5014895;28;45571;-62
2021/12/31 00:53:04;;;;;;;;;10.50;10.50;;;;;14.86;69.42;101738.06;5021459;28;45550;-62
2021/12/31 00:55:30;;;;;;;;;8.75;8.50;;;;;14.86;69.42;101735.38;5024169;28;45369;-62
2021/12/31 00:57:55;;;;;;;;;9.75;9.75;;;;;14.85;69.78;101741.66;5021322;28;45310;-62
2021/12/31 01:00:21;;;;;;;;;11.50;10.75;;;;;14.83;69.52;101730.97;5020150;28;45225;-62
2021/12/31 01:02:47;;;;;;;;;11.50;10.75;;;;;14.84;69.20;101732.75;5021475;28;45426;-61
2021/12/31 01:05:14;;;;;;;;;14.00;12.25;;;;;14.79;69.58;101735.56;5020826;28;45379;-62
2021/12/31 01:07:41;;;;;;;;;11.75;10.50;;;;;14.79;69.24;101735.56;5020882;28;45324;-61
2021/12/31 01:10:10;;;;;;;;;9.50;9.00;;;;;14.75;69.74;101723.19;5017033;28;45309;-62
2021/12/31 01:12:36;;;;;;;;;12.75;11.00;;;;;14.74;69.31;101721.41;5026701;28;45241;-62
2021/12/31 01:15:05;;;;;;;;;11.00;9.00;;;;;14.73;69.10;101716.97;5020910;28;45189;-62
2021/12/31 01:20:32;;;;;;;;;11.50;11.25;;;;;14.72;69.30;101700.91;4978754;28;45546;-62
2021/12/31 01:22:57;;;;;;;;;13.75;11.00;;;;;14.71;69.57;101694.66;5012052;28;45592;-62
2021/12/31 01:25:23;;;;;;;;;10.75;10.75;;;;;14.69;69.28;101696.50;5020307;28;45299;-62
2021/12/31 01:27:48;;;;;;;;;9.00;9.00;;;;;14.63;69.47;101689.56;5026090;28;45148;-62
2021/12/31 01:30:14;;;;;;;;;8.25;7.75;;;;;14.67;69.56;101703.75;5020637;28;45304;-61
2021/12/31 01:32:43;;;;;;;;;7.50;7.50;;;;;14.68;69.52;101699.25;5020834;28;45246;-62
2021/12/31 01:35:10;;;;;;;;;10.25;7.00;;;;;14.65;69.45;101694.88;5020468;28;45535;-62
2021/12/31 01:37:35;;;;;;;;;8.75;8.00;;;;;14.69;69.47;101695.66;5020613;28;45250;-61
2021/12/31 01:40:01;;;;;;;;;10.75;7.00;;;;;14.66;68.89;101688.56;5006510;28;45415;-62
2021/12/31 01:42:31;;;;;;;;;11.25;8.50;;;;;14.66;69.31;101698.44;4999086;28;45404;-62
2021/12/31 01:45:01;;;;;;;;;10.25;10.25;;;;;14.68;69.16;101710.88;5007262;28;45258;-62
2021/12/31 01:47:34;;;;;;;;;8.00;8.00;;;;;14.68;69.39;101710.00;5028087;28;45435;-62
2021/12/31 01:50:06;;;;;;;;;10.00;9.25;;;;;14.69;69.13;101718.00;5019985;28;45562;-61
2021/12/31 01:52:32;;;;;;;;;9.25;8.75;;;;;14.71;69.40;101729.59;5020311;28;45480;-62
2021/12/31 01:54:58;;;;;;;;;10.75;9.00;;;;;14.69;69.37;101727.91;5019805;28;45577;-62
2021/12/31 01:57:24;;;;;;;;;8.50;8.00;;;;;14.67;69.06;101730.63;5002171;28;47046;-61
2021/12/31 01:59:50;;;;;;;;;11.50;10.25;;;;;14.67;69.01;101733.31;5020285;28;45323;-61
2021/12/31 02:02:15;;;;;;;;;10.75;8.00;;;;;14.67;68.92;101735.09;5018858;28;45307;-61
2021/12/31 02:04:41;;;;;;;;;10.50;8.00;;;;;14.64;68.87;101730.72;5019537;28;45234;-61
2021/12/31 02:07:08;;;;;;;;;9.75;9.75;;;;;14.62;68.46;101736.16;5022026;28;45343;-61
2021/12/31 02:09:37;;;;;;;;;8.00;8.00;;;;;14.59;68.80;101727.31;5019977;28;45330;-62
2021/12/31 02:12:03;;;;;;;;;8.75;8.75;;;;;14.61;68.71;101736.19;5019295;28;45388;-62
2021/12/31 02:14:30;;;;;;;;;5.00;5.00;;;;;14.55;68.90;101731.00;5020136;28;45519;-62
2021/12/31 02:16:56;;;;;;;;;9.25;9.00;;;;;14.53;68.95;101720.28;5019902;28;45255;-62
2021/12/31 02:19:27;;;;;;;;;13.00;11.50;;;;;14.53;68.94;101727.47;5019878;28;45300;-62
2021/12/31 02:21:56;;;;;;;;;8.50;8.00;;;;;14.50;68.99;101716.81;5019182;28;45455;-62
2021/12/31 02:24:22;;;;;;;;;9.25;9.25;;;;;14.52;68.94;101715.00;5023614;28;45267;-62
2021/12/31 02:26:49;;;;;;;;;10.00;10.00;;;;;14.51;69.01;101715.91;5018192;28;47424;-62
2021/12/31 02:29:15;;;;;;;;;9.50;9.50;;;;;14.50;68.79;101706.97;5020038;28;45422;-62
2021/12/31 02:31:40;;;;;;;;;9.50;9.25;;;;;14.43;68.65;101697.34;5019119;28;45346;-62
2021/12/31 02:34:06;;;;;;;;;9.75;8.75;;;;;14.43;69.03;101694.66;5019835;28;45415;-62
2021/12/31 02:36:31;;;;;;;;;12.50;9.25;;;;;14.46;68.78;101706.19;5019546;28;45399;-62
2021/12/31 02:38:57;;;;;;;;;9.25;9.25;;;;;14.42;68.62;101704.53;5019569;28;45406;-62
2021/12/31 02:41:22;;;;;;;;;13.00;9.75;;;;;14.43;68.72;101705.41;5017482;28;45405;-62
2021/12/31 02:43:48;;;;;;;;;12.00;9.75;;;;;14.39;68.44;101696.56;5019796;28;45456;-62
2021/12/31 02:46:13;;;;;;;;;7.00;7.00;;;;;14.42;68.76;101699.16;5019372;28;45327;-62
2021/12/31 02:48:39;;;;;;;;;9.00;7.00;;;;;14.37;68.80;101693.06;5019545;28;45986;-61
2021/12/31 02:51:06;;;;;;;;;9.00;8.00;;;;;14.37;68.61;101684.16;5018750;28;45506;-62
2021/12/31 02:53:42;;;;;;;;;6.75;5.00;;;;;14.33;68.33;101687.84;5019233;28;45205;-62
2021/12/31 02:56:11;;;;;;;;;6.00;6.00;;;;;14.29;68.38;101676.34;5019279;28;45308;-62
2021/12/31 02:58:38;;;;;;;;;8.00;8.00;;;;;14.30;68.51;101683.47;5020160;28;45358;-62
2021/12/31 03:01:05;;;;;;;;;6.75;6.00;;;;;14.32;68.41;101676.22;5018986;28;45432;-62
2021/12/31 03:03:33;;;;;;;;;6.50;6.25;;;;;14.30;68.59;101667.34;5019323;28;45391;-62
2021/12/31 03:05:59;;;;;;;;;8.25;7.25;;;;;14.33;68.48;101663.66;5019190;28;45324;-62
2021/12/31 03:08:29;;;;;;;;;8.00;6.00;;;;;14.35;68.36;101678.81;5019223;28;45605;-62
2021/12/31 03:10:58;;;;;;;;;8.00;6.75;;;;;14.36;68.53;101672.50;5018910;28;45421;-62
2021/12/31 03:13:24;;;;;;;;;7.00;7.00;;;;;14.31;68.21;101674.47;5001515;28;45882;-61
2021/12/31 03:15:53;;;;;;;;;6.75;5.00;;;;;14.30;68.35;101667.34;5020360;28;46213;-62
2021/12/31 03:18:19;;;;;;;;;6.00;6.00;;;;;14.33;68.41;101674.41;5017876;28;45413;-61
2021/12/31 03:21:01;;;;;;;;;7.75;6.50;;;;;14.30;68.58;101674.50;5017436;28;45447;-62
2021/12/31 03:23:28;;;;;;;;;8.75;8.00;;;;;14.31;68.31;101693.25;5016457;28;45475;-61
2021/12/31 03:25:54;;;;;;;;;7.00;6.00;;;;;14.31;68.21;101689.72;5018006;28;45310;-62
2021/12/31 03:28:20;;;;;;;;;8.50;8.00;;;;;14.30;68.24;101691.53;5017937;28;45471;-62
2021/12/31 03:30:49;;;;;;;;;6.50;6.00;;;;;14.26;68.17;101700.59;5016717;28;45438;-62
2021/12/31 03:33:15;;;;;;;;;7.75;6.75;;;;;14.30;68.38;101725.53;5021580;28;45325;-62
2021/12/31 03:35:41;;;;;;;;;5.75;5.75;;;;;14.29;68.20;101732.72;5020536;28;46399;-62
2021/12/31 03:38:06;;;;;;;;;7.75;6.00;;;;;14.29;67.82;101738.09;5022160;28;45416;-62
2021/12/31 03:40:32;;;;;;;;;9.75;6.25;;;;;14.27;68.14;101750.72;5015043;28;45804;-62
2021/12/31 03:42:57;;;;;;;;;8.00;7.50;;;;;14.27;67.85;101756.94;5020592;28;45451;-62
2021/12/31 03:45:23;;;;;;;;;7.50;6.50;;;;;14.26;67.88;101751.63;5022490;28;45751;-61
2021/12/31 03:47:48;;;;;;;;;6.25;6.25;;;;;14.21;67.61;101727.59;5022527;28;45357;-62
2021/12/31 03:50:14;;;;;;;;;7.75;7.25;;;;;14.19;67.87;101721.41;5021592;28;45616;-62
2021/12/31 03:52:40;;;;;;;;;7.25;6.00;;;;;14.16;67.86;101705.38;5021857;28;45535;-62
2021/12/31 03:55:07;;;;;;;;;8.50;7.00;;;;;14.10;67.88;101684.13;5021632;28;45419;-62
2021/12/31 03:57:33;;;;;;;;;5.75;5.00;;;;;14.05;68.07;101678.88;5021955;28;45238;-62
2021/12/31 03:59:59;;;;;;;;;9.75;8.00;;;;;14.06;67.94;101690.50;5017240;28;45454;-62
2021/12/31 04:02:24;;;;;;;;;7.75;6.75;;;;;14.05;67.91;101694.13;5020066;28;45285;-62
2021/12/31 04:04:49;;;;;;;;;5.00;5.00;;;;;14.05;68.02;101691.44;5022881;28;45214;-62
2021/12/31 04:07:15;;;;;;;;;6.25;5.50;;;;;14.00;67.93;101674.56;5021896;28;45324;-62
2021/12/31 04:09:40;;;;;;;;;8.50;5.00;;;;;14.02;67.98;101672.75;5019825;28;45272;-62
2021/12/31 04:12:06;;;;;;;;;5.00;5.00;;;;;14.00;67.93;101663.84;5019368;28;45452;-62
2021/12/31 04:14:31;;;;;;;;;7.25;7.25;;;;;13.99;67.80;101668.34;5022056;28;46606;-62
2021/12/31 04:16:57;;;;;;;;;6.00;6.00;;;;;14.00;67.91;101672.78;5020439;28;45761;-62
2021/12/31 04:19:22;;;;;;;;;5.50;5.00;;;;;14.01;67.94;101668.28;5022110;28;45273;-62
2021/12/31 04:21:49;;;;;;;;;4.00;4.00;;;;;14.00;68.05;101666.53;5020590;28;45320;-62
2021/12/31 04:24:27;;;;;;;;;8.00;6.25;;;;;13.99;68.06;101673.72;5021451;28;46281;-62
2021/12/31 04:26:52;;;;;;;;;6.00;6.00;;;;;13.98;68.14;101665.69;5021596;28;45496;-62
2021/12/31 04:29:18;;;;;;;;;5.50;5.50;;;;;13.88;68.13;101651.69;5021953;28;45442;-62
2021/12/31 04:31:43;;;;;;;;;7.25;6.50;;;;;13.96;67.90;101668.44;5020418;28;45222;-61
2021/12/31 04:34:08;;;;;;;;;7.25;6.00;;;;;13.99;68.04;101660.28;5020259;28;46076;-62
2021/12/31 04:36:34;;;;;;;;;5.25;5.25;;;;;13.99;67.88;101656.72;5021544;28;45232;-62
2021/12/31 04:38:59;;;;;;;;;8.50;7.00;;;;;14.00;67.82;101667.41;5025248;28;45436;-62
2021/12/31 04:41:25;;;;;;;;;6.25;6.25;;;;;13.97;67.71;101664.84;5020431;28;45663;-61
2021/12/31 04:43:50;;;;;;;;;7.00;7.00;;;;;13.95;67.71;101652.38;5021564;28;45335;-61
2021/12/31 04:46:16;;;;;;;;;8.25;7.75;;;;;13.93;67.97;101646.19;5020766;28;45515;-61
2021/12/31 04:48:41;;;;;;;;;8.25;7.00;;;;;13.88;67.71;101632.91;5020988;28;45340;-61
2021/12/31 04:51:06;;;;;;;;;7.75;7.25;;;;;13.87;67.53;101629.34;5020571;28;45473;-62
2021/12/31 04:53:33;;;;;;;;;9.50;8.75;;;;;13.87;67.98;101640.09;5021386;28;45562;-61
2021/12/31 04:55:58;;;;;;;;;7.50;6.25;;;;;13.87;67.98;101652.63;5020908;28;45510;-61
2021/12/31 04:58:24;;;;;;;;;8.50;7.75;;;;;13.86;67.78;101658.91;5024710;28;46113;-61
2021/12/31 05:00:49;;;;;;;;;8.25;7.25;;;;;13.87;67.80;101663.38;5004431;28;45596;-61
2021/12/31 05:03:14;;;;;;;;;9.25;9.25;;;;;13.87;67.60;101674.09;5021278;28;45363;-62
2021/12/31 05:05:40;;;;;;;;;6.25;6.25;;;;;13.87;68.02;101666.06;5020868;28;45334;-62
2021/12/31 05:08:05;;;;;;;;;7.25;6.75;;;;;13.87;67.85;101658.88;5021050;28;45214;-61
2021/12/31 05:10:32;;;;;;;;;9.25;7.25;;;;;13.84;67.71;101658.97;5017882;28;45617;-61
2021/12/31 05:12:59;;;;;;;;;10.00;9.00;;;;;13.84;67.55;101668.81;4999803;28;48590;-62
2021/12/31 05:15:31;;;;;;;;;8.50;8.50;;;;;13.84;67.51;101658.09;5019186;28;45476;-62
2021/12/31 05:17:56;;;;;;;;;7.00;6.00;;;;;13.75;67.61;101647.63;5027716;28;45339;-62
2021/12/31 05:20:22;;;;;;;;;8.25;7.00;;;;;13.80;67.75;101657.31;5018429;28;46005;-62
2021/12/31 05:22:47;;;;;;;;;9.75;8.75;;;;;13.82;67.73;101659.97;5020785;28;45264;-62
2021/12/31 05:25:13;;;;;;;;;7.50;7.50;;;;;13.77;67.62;101657.41;5020622;28;45457;-61
2021/12/31 05:27:38;;;;;;;;;4.75;4.75;;;;;13.76;67.55;101650.28;5018879;28;45503;-62
2021/12/31 05:30:05;;;;;;;;;5.75;5.25;;;;;13.74;67.47;101649.44;5020199;28;45404;-61
2021/12/31 05:32:31;;;;;;;;;5.00;5.00;;;;;13.74;67.70;101644.09;5022996;28;45413;-61
2021/12/31 05:34:57;;;;;;;;;5.50;5.50;;;;;13.76;67.69;101646.72;5002240;28;45508;-61
2021/12/31 05:37:22;;;;;;;;;6.75;6.75;;;;;13.76;67.64;101638.66;5020062;28;45498;-61
2021/12/31 05:39:47;;;;;;;;;6.75;6.00;;;;;13.75;67.55;101626.16;5001336;28;45441;-61
2021/12/31 05:42:13;;;;;;;;;5.50;5.00;;;;;13.67;67.81;101613.88;5018971;28;45918;-62
2021/12/31 05:44:39;;;;;;;;;7.00;5.00;;;;;13.74;67.84;101632.47;5018567;28;46588;-61
2021/12/31 05:47:04;;;;;;;;;7.00;6.25;;;;;13.75;67.73;101626.16;5020127;28;45347;-61
2021/12/31 05:49:30;;;;;;;;;5.00;5.00;;;;;13.71;67.69;101626.28;5020019;28;45402;-61
2021/12/31 05:51:55;;;;;;;;;7.00;6.25;;;;;13.60;67.55;101615.00;5019388;28;46185;-61
2021/12/31 05:54:21;;;;;;;;;6.25;6.25;;;;;13.62;67.66;101613.16;5001023;28;45373;-61
2021/12/31 05:56:46;;;;;;;;;7.75;5.75;;;;;13.58;67.85;101606.13;5020124;28;45433;-61
2021/12/31 05:59:11;;;;;;;;;7.00;7.00;;;;;13.57;68.05;101598.13;5019887;28;45471;-61
2021/12/31 06:01:37;;;;;;;;;5.50;5.50;;;;;13.59;67.96;101601.63;5017630;28;47235;-61
2021/12/31 06:04:02;;;;;;;;;4.75;4.75;;;;;13.56;67.78;101616.00;5019980;28;45359;-61
2021/12/31 06:06:28;;;;;;;;;7.25;6.25;;;;;13.58;67.63;101618.66;5020179;28;45415;-61
2021/12/31 06:08:53;;;;;;;;;5.00;5.00;;;;;13.58;67.71;101624.91;5019035;28;45221;-62
2021/12/31 06:11:19;;;;;;;;;10.75;7.00;;;;;13.59;67.90;101636.50;5013280;28;45393;-61
2021/12/31 06:13:49;;;;;;;;;7.50;6.50;;;;;13.53;67.95;101632.19;5018848;28;45314;-62
2021/12/31 06:16:15;;;;;;;;;7.25;7.25;;;;;13.57;67.96;101639.25;5019636;28;45591;-61
2021/12/31 06:18:40;;;;;;;;;8.50;8.50;;;;;13.53;67.88;101642.94;5021535;28;45244;-61
2021/12/31 06:21:07;;;;;;;;;7.50;7.50;;;;;13.58;67.99;101657.09;5012867;28;46436;-61
2021/12/31 06:23:32;;;;;;;;;9.00;9.00;;;;;13.55;67.98;101657.19;5019022;28;45524;-62
2021/12/31 06:25:58;;;;;;;;;6.25;6.25;;;;;13.60;67.95;101660.63;5019782;28;45369;-61
2021/12/31 06:28:23;;;;;;;;;9.25;8.75;;;;;13.59;67.79;101656.16;5018518;28;45582;-61
2021/12/31 06:30:49;;;;;;;;;7.50;6.75;;;;;13.59;67.76;101650.78;5017664;28;45619;-61
2021/12/31 06:33:14;;;;;;;;;7.50;6.25;;;;;13.60;67.81;101646.31;5019931;28;45384;-61
2021/12/31 06:35:40;;;;;;;;;5.25;5.25;;;;;13.59;67.84;101626.66;5018727;28;45732;-61
2021/12/31 06:38:06;;;;;;;;;8.50;5.75;;;;;13.62;67.88;101649.84;4999585;28;45656;-61
2021/12/31 06:40:32;;;;;;;;;7.75;7.00;;;;;13.60;67.83;101651.66;5016769;28;45529;-61
2021/12/31 06:42:58;;;;;;;;;6.25;5.00;;;;;13.63;68.07;101651.56;5017309;28;45666;-62
2021/12/31 06:45:23;;;;;;;;;6.00;6.00;;;;;13.63;67.92;101644.44;5018334;28;45367;-61
2021/12/31 06:47:49;;;;;;;;;10.00;7.25;;;;;13.60;67.47;101633.78;5018295;28;45333;-61
2021/12/31 06:50:14;;;;;;;;;7.50;6.75;;;;;13.62;67.81;101645.34;5022270;28;45772;-61
2021/12/31 06:52:40;;;;;;;;;6.00;5.00;;;;;13.64;67.79;101646.16;5016152;28;45424;-62
2021/12/31 06:55:07;;;;;;;;;10.50;8.00;;;;;13.64;67.84;101654.22;5015456;28;45333;-61
2021/12/31 06:57:33;;;;;;;;;5.50;4.75;;;;;13.64;68.02;101664.94;5017608;28;45260;-61
2021/12/31 06:59:58;;;;;;;;;5.75;5.75;;;;;13.67;67.95;101672.03;5018266;28;45224;-61
2021/12/31 07:02:24;;;;;;;;;5.00;5.00;;;;;13.65;67.66;101657.81;5016344;28;45321;-61
2021/12/31 07:04:49;;;;;;;;;5.00;5.00;;;;;13.63;67.60;101628.34;5018965;28;45312;-61
2021/12/31 07:07:16;;;;;;;;;5.00;5.00;;;;;13.62;67.75;101623.88;5018681;28;45589;-61
2021/12/31 07:09:41;;;;;;;;;5.75;5.75;;;;;13.63;67.73;101655.16;5007904;28;47402;-61
2021/12/31 07:12:07;;;;;;;;;8.25;6.00;;;;;13.65;67.76;101668.53;5022041;28;45273;-61
2021/12/31 07:14:32;;;;;;;;;8.25;7.00;;;;;13.64;67.42;101666.75;5022592;28;45309;-61
2021/12/31 07:16:58;;;;;;;;;7.00;6.50;;;;;13.62;67.86;101674.84;5021616;28;45419;-62
2021/12/31 07:19:23;;;;;;;;;7.25;6.00;;;;;13.62;67.70;101676.66;5022309;28;46002;-61
2021/12/31 07:21:48;;;;;;;;;9.25;7.00;;;;;13.61;67.61;101666.84;5022089;28;45328;-61
2021/12/31 07:24:13;;;;;;;;;13.75;8.00;;;;;13.60;68.11;101665.97;5020821;28;45366;-61
2021/12/31 07:26:39;;;;;;;;;12.00;11.00;;;;;13.60;67.70;101675.81;5026568;28;45364;-61
2021/12/31 07:29:04;;;;;;;;;9.00;9.00;;;;;13.61;67.48;101673.09;5022204;28;45342;-61
2021/12/31 07:31:29;;;;;;;;;8.50;7.00;;;;;13.57;67.64;101671.44;5021498;28;46968;-61
2021/12/31 07:33:55;;;;;;;;;8.50;8.00;;;;;13.58;67.43;101673.19;5021778;28;45588;-61
2021/12/31 07:36:20;;;;;;;;;9.00;9.00;;;;;13.56;68.00;101679.53;5022374;28;45472;-62
2021/12/31 07:38:57;;;;;;;;;6.00;6.00;;;;;13.56;67.48;101683.06;5020968;28;45526;-61
2021/12/31 07:41:23;;;;;;;;;6.00;6.00;;;;;13.59;67.68;101692.84;5021651;28;45371;-61
2021/12/31 07:43:48;;;;;;;;;7.00;6.00;;;;;13.59;67.41;101696.41;5021488;28;45206;-62
2021/12/31 07:46:14;;;;;;;;;7.00;7.00;;;;;13.57;67.57;101678.59;5022195;28;45471;-61
2021/12/31 07:48:39;;;;;;;;;5.75;5.75;;;;;13.55;67.50;101681.34;5018936;28;45135;-62
2021/12/31 07:51:05;;;;;;;;;8.00;6.00;;;;;13.52;67.64;101663.50;5021848;28;45233;-61
2021/12/31 07:53:30;;;;;;;;;8.00;7.75;;;;;13.54;67.41;101671.53;5021518;28;45502;-62
2021/12/31 07:55:55;;;;;;;;;8.50;7.00;;;;;13.52;67.22;101662.66;5020303;28;45328;-62
2021/12/31 07:58:21;;;;;;;;;6.50;6.50;;;;;13.53;67.27;101669.75;5021298;28;45640;-65
2021/12/31 08:00:46;;;;;;;;;9.25;7.75;;;;;13.51;67.30;101679.66;5002664;28;45494;-65
2021/12/31 08:03:12;;;;;;;;;7.75;7.75;;;;;13.52;67.23;101684.09;5020985;28;45546;-64
2021/12/31 08:05:37;;;;;;;;;6.00;6.00;;;;;13.48;67.33;101671.69;5019741;28;45463;-65
2021/12/31 08:08:05;;;;;;;;;9.50;9.00;;;;;13.46;67.46;101669.06;5019192;28;47992;-65
2021/12/31 08:10:34;;;;;;;;;7.00;6.00;;;;;13.46;67.57;101681.59;5027515;28;45281;-66
2021/12/31 08:13:01;;;;;;;;;6.75;6.75;;;;;13.44;67.82;101683.44;5029196;28;45709;-66
2021/12/31 08:15:27;;;;;;;;;8.00;7.75;;;;;13.50;67.83;101688.66;5026765;28;45392;-66
2021/12/31 08:17:54;;;;;;;;;6.00;6.00;;;;;13.51;67.79;101690.38;5021759;28;46022;-66
2021/12/31 08:20:19;;;;;;;;;9.00;8.00;;;;;13.52;67.74;101697.53;5015356;28;45684;-66
2021/12/31 08:22:45;;;;;;;;;8.50;7.50;;;;;13.46;67.63;101687.81;4999699;28;45488;-66
2021/12/31 08:25:10;;;;;;;;;8.75;7.25;;;;;13.48;67.74;101714.59;5019191;28;45519;-65
2021/12/31 08:27:35;;;;;;;;;10.00;8.50;;;;;13.52;67.89;101724.34;5020589;28;46295;-65
2021/12/31 08:30:01;;;;;;;;;10.00;9.50;;;;;13.53;67.81;101744.84;5021233;28;45530;-66
2021/12/31 08:32:26;;;;;;;;;11.25;7.75;;;;;13.58;68.02;101739.38;5022006;28;45645;-66
2021/12/31 08:34:52;;;;;;;;;7.00;7.00;;;;;13.49;67.65;101717.25;5024113;28;45419;-65
2021/12/31 08:37:17;;;;;;;;;8.00;7.00;;;;;13.52;67.48;101710.94;5022942;28;46174;-65
2021/12/31 08:39:42;;;;;;;;;7.75;7.75;;;;;13.51;67.58;101706.47;5023030;28;45352;-66
2021/12/31 08:42:08;;;;;;;;;9.00;8.00;;;;;13.50;67.57;101708.28;5025081;28;45297;-65
2021/12/31 08:44:33;;;;;;;;;8.75;7.75;;;;;13.51;67.64;101725.25;5021220;28;45563;-65
2021/12/31 08:46:58;;;;;;;;;7.75;7.75;;;;;13.50;67.52;101721.69;5010227;28;46281;-65
2021/12/31 08:49:24;;;;;;;;;9.25;9.25;;;;;13.47;67.68;101716.41;5020377;28;45436;-66
2021/12/31 08:51:50;;;;;;;;;9.50;7.00;;;;;13.46;67.68;101719.16;5018360;28;45411;-66
2021/12/31 08:54:15;;;;;;;;;8.00;7.00;;;;;13.46;67.69;101724.50;5017880;28;45604;-66
2021/12/31 08:56:43;;;;;;;;;9.25;8.00;;;;;13.44;67.81;101723.69;5019721;28;45419;-67
2021/12/31 08:59:08;;;;;;;;;9.00;9.00;;;;;13.48;67.76;101726.25;5019527;28;45446;-67
2021/12/31 09:01:34;;;;;;;;;11.25;9.50;;;;;13.43;67.86;101722.81;5021280;28;45819;-66
2021/12/31 09:03:59;;;;;;;;;9.25;7.50;;;;;13.45;67.80;101720.09;5022297;28;45407;-66
2021/12/31 09:06:24;;;;;;;;;9.25;9.25;;;;;13.46;67.94;101722.69;5017728;28;45503;-65
2021/12/31 09:08:50;;;;;;;;;9.00;7.25;;;;;13.41;67.75;101702.31;5018291;28;45487;-66
2021/12/31 09:11:16;;;;;;;;;10.50;8.75;;;;;13.36;67.81;101694.38;5020297;28;45430;-66
2021/12/31 09:13:42;;;;;;;;;7.00;6.00;;;;;13.43;68.04;101717.44;5011413;28;45934;-62
2021/12/31 09:16:09;;;;;;;;;7.50;7.50;;;;;13.45;68.09;101731.69;5019530;28;45988;-61
2021/12/31 09:18:35;;;;;;;;;9.50;8.50;;;;;13.49;67.96;101765.53;5019190;28;45553;-61
2021/12/31 09:21:01;;;;;;;;;10.25;9.00;;;;;13.54;67.79;101762.72;5022378;28;45444;-62
2021/12/31 09:23:27;;;;;;;;;8.00;8.00;;;;;13.50;67.60;101764.63;5020974;28;45476;-69
2021/12/31 09:25:52;;;;;;;;;10.00;8.25;;;;;13.46;67.73;101754.88;5019102;28;45425;-72
2021/12/31 09:28:18;;;;;;;;;8.00;8.00;;;;;13.42;67.91;101726.41;5019912;28;45845;-70
2021/12/31 09:30:44;;;;;;;;;9.75;9.50;;;;;13.38;67.75;101743.53;5026734;28;45498;-69
2021/12/31 09:33:09;;;;;;;;;10.25;10.25;;;;;13.36;67.91;101756.06;5019073;28;45581;-69
2021/12/31 09:35:34;;;;;;;;;8.00;8.00;;;;;13.38;67.89;101761.38;5018674;28;45514;-69
2021/12/31 09:38:00;;;;;;;;;9.00;9.00;;;;;13.39;67.98;101764.03;5016215;28;45451;-68
2021/12/31 09:40:26;;;;;;;;;10.25;8.50;;;;;13.30;67.99;101738.31;5009931;28;45466;-68
2021/12/31 09:43:08;;;;;;;;;9.75;8.75;;;;;13.40;67.89;101744.34;5000539;28;45760;-68
2021/12/31 09:45:36;;;;;;;;;10.75;10.00;;;;;13.39;68.12;101747.06;5025255;28;46454;-69
2021/12/31 09:48:01;;;;;;;;;7.50;7.50;;;;;13.29;68.25;101733.88;5019437;28;45506;-69
2021/12/31 09:50:27;;;;;;;;;11.25;10.00;;;;;13.41;68.19;101761.31;5019735;28;45360;-69
2021/12/31 09:52:54;;;;;;;;;8.25;7.75;;;;;13.39;68.25;101772.06;5017722;28;45360;-69
2021/12/31 09:55:41;;;;;;;;;11.25;9.75;;;;;13.46;68.48;101778.16;5018561;28;45518;-65
2021/12/31 09:58:09;;;;;;;;;8.75;8.50;;;;;13.49;68.10;101791.47;4992607;28;45365;-70
2021/12/31 10:00:36;;;;;;;;;11.00;9.75;;;;;13.51;68.41;101806.63;5019969;28;45451;-69
2021/12/31 10:03:34;;;;;;;;;8.75;8.75;;;;;13.51;68.46;101817.34;5019491;28;45456;-67
2021/12/31 10:06:04;;;;;;;;;9.25;8.50;;;;;13.51;68.14;101819.13;4959738;28;46919;-69
2021/12/31 10:08:38;;;;;;;;;10.75;8.75;;;;;13.52;68.31;101820.91;5019233;28;45435;-68
2021/12/31 10:11:21;;;;;;;;;11.00;10.00;;;;;13.53;68.27;101817.28;5019801;28;45436;-68
2021/12/31 10:14:00;;;;;;;;;11.25;10.75;;;;;13.53;68.49;101809.22;5019425;28;45479;-69
2021/12/31 10:16:32;;;;;;;;;12.75;11.00;;;;;13.54;68.28;101819.06;5027691;28;48544;-72
2021/12/31 10:19:14;;;;;;;;;10.25;9.75;;;;;13.56;68.52;101810.97;5021164;28;45689;-81
2021/12/31 10:21:46;;;;;;;;;8.00;7.00;;;;;13.55;68.39;101806.50;5019297;28;45337;-73
2021/12/31 10:24:22;;;;;;;;;13.00;8.25;;;;;13.59;68.55;101818.94;5018804;28;45223;-73
2021/12/31 10:26:48;;;;;;;;;8.50;8.25;;;;;13.60;68.33;101820.69;5026672;28;46076;-73
2021/12/31 10:29:13;;;;;;;;;11.00;9.00;;;;;13.65;68.47;101833.06;5023162;28;45595;-73
2021/12/31 10:31:44;;;;;;;;;9.00;7.25;;;;;13.66;68.33;101834.78;5017958;28;45457;-73
2021/12/31 10:34:28;;;;;;;;;10.75;9.00;;;;;13.67;68.29;101825.84;5014487;28;45419;-73
2021/12/31 10:36:55;;;;;;;;;10.25;9.25;;;;;13.68;68.50;101822.25;5018166;28;45460;-70
2021/12/31 10:39:28;;;;;;;;;14.00;9.00;;;;;13.74;68.35;101847.16;5021793;28;45185;-69
2021/12/31 10:41:59;;;;;;;;;14.75;12.00;;;;;13.79;68.74;101842.53;5033165;28;45422;-71
2021/12/31 10:44:43;;;;;;;;;18.00;18.00;;;;;13.81;68.50;101859.47;5021864;28;45742;-70
2021/12/31 10:47:11;;;;;;;;;11.25;10.25;;;;;13.85;68.62;101883.50;5031126;28;45468;-71
2021/12/31 10:50:01;;;;;;;;;9.00;9.00;;;;;13.90;68.54;101896.78;5030590;28;45391;-70
2021/12/31 10:52:35;;;;;;;;;7.50;6.25;;;;;13.93;68.78;101898.50;5021041;28;45656;-74
2021/12/31 10:55:04;;;;;;;;;8.00;6.25;;;;;13.97;68.60;101898.38;5024280;28;45468;-68
2021/12/31 10:57:38;;;;;;;;;8.50;6.00;;;;;13.92;68.67;101876.16;5019604;28;45241;-74
2021/12/31 11:00:05;;;;;;;;;8.00;7.25;;;;;14.06;68.61;101887.34;5020375;28;45682;-72
2021/12/31 11:02:33;;;;;;;;;8.00;7.00;;;;;14.08;68.52;101877.47;5023082;28;45474;-70
2021/12/31 11:04:59;;;;;;;;;7.00;7.00;;;;;14.13;68.30;101876.44;5016663;28;45762;-70
2021/12/31 11:07:27;;;;;;;;;5.50;5.00;;;;;14.13;68.71;101868.38;5016034;28;45463;-75
2021/12/31 11:09:52;;;;;;;;;6.00;6.00;;;;;14.17;68.36;101876.31;5020188;28;45249;-75
2021/12/31 11:12:18;;;;;;;;;6.00;5.50;;;;;14.20;68.55;101880.69;5013411;28;45314;-70
2021/12/31 11:14:43;;;;;;;;;7.00;6.00;;;;;14.22;68.53;101885.13;5021664;28;45214;-71
2021/12/31 11:17:09;;;;;;;;;7.75;6.00;;;;;14.23;68.92;101878.84;5025124;28;45914;-69
2021/12/31 11:19:39;;;;;;;;;8.00;7.50;;;;;14.27;68.83;101880.50;5021403;28;45320;-74
2021/12/31 11:22:05;;;;;;;;;5.75;5.75;;;;;14.32;68.86;101882.16;5016255;28;45633;-71
2021/12/31 11:24:34;;;;;;;;;5.00;5.00;;;;;14.37;68.56;101880.22;5011957;28;45710;-69